sensor_id;sensor_type;location;lat;lon;timestamp;pressure;altitude;pressure_sealevel;temperature;humidity
11172;BME280;5642;50.830;12.082;2022-10-30T00:00:38;99844.28;;;18.42;48.59
11172;BME280;5642;50.830;12.082;2022-10-30T00:03:04;99828.81;;;18.34;48.60
11172;BME280;5642;50.830;12.082;2022-10-30T00:05:36;99843.03;;;18.33;48.63
11172;BME280;5642;50.830;12.082;2022-10-30T00:08:04;99809.66;;;18.13;48.60
11172;BME280;5642;50.830;12.082;2022-10-30T00:10:30;99838.16;;;18.25;48.67
11172;BME280;5642;50.830;12.082;2022-10-30T00:12:56;99780.19;;;17.88;48.65
11172;BME280;5642;50.830;12.082;2022-10-30T00:15:24;99830.63;;;18.18;48.67
11172;BME280;5642;50.830;12.082;2022-10-30T00:17:50;99834.38;;;18.14;48.67
11172;BME280;5642;50.830;12.082;2022-10-30T00:20:16;99834.56;;;18.11;48.63
11172;BME280;5642;50.830;12.082;2022-10-30T00:22:42;99785.19;;;17.77;48.75
11172;BME280;5642;50.830;12.082;2022-10-30T00:25:08;99830.53;;;18.04;48.80
11172;BME280;5642;50.830;12.082;2022-10-30T00:27:35;99833.19;;;18.04;48.94
11172;BME280;5642;50.830;12.082;2022-10-30T00:30:01;99817.38;;;18.02;48.93
11172;BME280;5642;50.830;12.082;2022-10-30T00:32:27;99823.53;;;18.03;49.03
11172;BME280;5642;50.830;12.082;2022-10-30T00:34:53;99820.88;;;18.03;49.07
11172;BME280;5642;50.830;12.082;2022-10-30T00:37:20;99808.03;;;17.95;49.09
11172;BME280;5642;50.830;12.082;2022-10-30T00:39:46;99793.50;;;17.86;49.16
11172;BME280;5642;50.830;12.082;2022-10-30T00:42:13;99820.03;;;18.02;49.15
11172;BME280;5642;50.830;12.082;2022-10-30T00:44:51;99810.50;;;17.98;49.21
11172;BME280;5642;50.830;12.082;2022-10-30T00:47:27;99794.72;;;17.96;49.23
11172;BME280;5642;50.830;12.082;2022-10-30T00:50:05;99803.84;;;18.07;49.19
11172;BME280;5642;50.830;12.082;2022-10-30T00:52:41;99796.75;;;18.07;49.24
11172;BME280;5642;50.830;12.082;2022-10-30T00:55:13;99796.75;;;18.07;49.29
11172;BME280;5642;50.830;12.082;2022-10-30T00:57:41;99800.34;;;18.06;49.35
11172;BME280;5642;50.830;12.082;2022-10-30T01:00:10;99797.59;;;18.08;49.25
11172;BME280;5642;50.830;12.082;2022-10-30T01:02:38;99805.41;;;18.11;49.33
11172;BME280;5642;50.830;12.082;2022-10-30T01:05:05;99795.72;;;18.10;49.30
11172;BME280;5642;50.830;12.082;2022-10-30T01:07:31;99792.03;;;18.12;49.40
11172;BME280;5642;50.830;12.082;2022-10-30T01:09:58;99776.31;;;18.09;49.27
11172;BME280;5642;50.830;12.082;2022-10-30T01:12:24;99755.03;;;17.95;49.27
11172;BME280;5642;50.830;12.082;2022-10-30T01:14:53;99783.56;;;18.21;49.29
11172;BME280;5642;50.830;12.082;2022-10-30T01:20:17;99768.19;;;18.12;49.24
11172;BME280;5642;50.830;12.082;2022-10-30T01:25:42;99789.06;;;18.18;49.38
11172;BME280;5642;50.830;12.082;2022-10-30T01:28:27;99788.28;;;18.16;49.36
11172;BME280;5642;50.830;12.082;2022-10-30T01:33:49;99785.06;;;18.11;49.38
11172;BME280;5642;50.830;12.082;2022-10-30T01:36:32;99782.41;;;18.11;49.46
11172;BME280;5642;50.830;12.082;2022-10-30T01:39:21;99786.00;;;18.10;49.42
11172;BME280;5642;50.830;12.082;2022-10-30T01:41:48;99780.84;;;18.07;49.37
11172;BME280;5642;50.830;12.082;2022-10-30T01:44:18;99777.94;;;18.12;49.41
11172;BME280;5642;50.830;12.082;2022-10-30T01:54:53;99773.16;;;18.03;49.59
11172;BME280;5642;50.830;12.082;2022-10-30T01:57:35;99759.13;;;18.00;49.42
11172;BME280;5642;50.830;12.082;2022-10-30T02:00:09;99760.16;;;17.98;49.48
11172;BME280;5642;50.830;12.082;2022-10-30T02:02:36;99754.19;;;17.94;49.57
11172;BME280;5642;50.830;12.082;2022-10-30T02:05:04;99747.50;;;17.87;49.58
11172;BME280;5642;50.830;12.082;2022-10-30T02:07:31;99760.50;;;17.92;49.60
11172;BME280;5642;50.830;12.082;2022-10-30T02:09:58;99731.88;;;17.67;49.56
11172;BME280;5642;50.830;12.082;2022-10-30T02:12:24;99759.13;;;17.85;49.67
11172;BME280;5642;50.830;12.082;2022-10-30T02:14:57;99761.44;;;17.91;49.60
11172;BME280;5642;50.830;12.082;2022-10-30T02:17:24;99749.31;;;17.87;49.62
11172;BME280;5642;50.830;12.082;2022-10-30T02:19:50;99700.56;;;17.58;49.73
11172;BME280;5642;50.830;12.082;2022-10-30T02:22:16;99720.66;;;17.62;49.69
11172;BME280;5642;50.830;12.082;2022-10-30T02:24:44;99738.47;;;17.76;49.76
11172;BME280;5642;50.830;12.082;2022-10-30T02:27:10;99724.94;;;17.65;49.72
11172;BME280;5642;50.830;12.082;2022-10-30T02:29:36;99725.13;;;17.62;49.76
11172;BME280;5642;50.830;12.082;2022-10-30T02:32:03;99741.63;;;17.82;49.69
11172;BME280;5642;50.830;12.082;2022-10-30T02:34:29;99738.19;;;17.80;49.80
11172;BME280;5642;50.830;12.082;2022-10-30T02:36:55;99719.31;;;17.71;49.79
11172;BME280;5642;50.830;12.082;2022-10-30T02:39:21;99741.34;;;17.87;49.82
11172;BME280;5642;50.830;12.082;2022-10-30T02:41:47;99738.63;;;17.88;49.74
11172;BME280;5642;50.830;12.082;2022-10-30T02:44:14;99739.56;;;17.87;49.72
11172;BME280;5642;50.830;12.082;2022-10-30T02:46:40;99740.59;;;17.85;49.68
11172;BME280;5642;50.830;12.082;2022-10-30T02:49:06;99726.47;;;17.84;49.74
11172;BME280;5642;50.830;12.082;2022-10-30T02:51:33;99677.34;;;17.47;49.73
11172;BME280;5642;50.830;12.082;2022-10-30T02:53:59;99738.34;;;17.77;49.66
11172;BME280;5642;50.830;12.082;2022-10-30T02:56:25;99722.13;;;17.68;49.74
11172;BME280;5642;50.830;12.082;2022-10-30T02:58:54;99732.47;;;17.72;49.52
11172;BME280;5642;50.830;12.082;2022-10-30T03:01:20;99715.66;;;17.56;49.80
11172;BME280;5642;50.830;12.082;2022-10-30T03:03:46;99718.78;;;17.64;49.86
11172;BME280;5642;50.830;12.082;2022-10-30T03:06:15;99724.28;;;17.61;49.91
11172;BME280;5642;50.830;12.082;2022-10-30T03:08:42;99712.94;;;17.57;49.70
11172;BME280;5642;50.830;12.082;2022-10-30T03:11:11;99732.03;;;17.64;49.65
11172;BME280;5642;50.830;12.082;2022-10-30T03:13:38;99717.38;;;17.57;49.88
11172;BME280;5642;50.830;12.082;2022-10-30T03:16:10;99729.63;;;17.59;49.88
11172;BME280;5642;50.830;12.082;2022-10-30T03:18:37;99730.47;;;17.60;49.90
11172;BME280;5642;50.830;12.082;2022-10-30T03:21:05;99724.28;;;17.61;49.96
11172;BME280;5642;50.830;12.082;2022-10-30T03:23:32;99724.28;;;17.61;50.12
11172;BME280;5642;50.830;12.082;2022-10-30T03:25:58;99716.38;;;17.59;50.19
11172;BME280;5642;50.830;12.082;2022-10-30T03:28:26;99722.28;;;17.65;50.04
11172;BME280;5642;50.830;12.082;2022-10-30T03:31:00;99667.38;;;17.35;50.13
11172;BME280;5642;50.830;12.082;2022-10-30T03:33:27;99726.38;;;17.70;50.05
11172;BME280;5642;50.830;12.082;2022-10-30T03:35:54;99709.97;;;17.64;50.15
11172;BME280;5642;50.830;12.082;2022-10-30T03:38:20;99728.88;;;17.73;50.07
11172;BME280;5642;50.830;12.082;2022-10-30T03:40:46;99727.00;;;17.75;49.94
11172;BME280;5642;50.830;12.082;2022-10-30T03:43:12;99735.63;;;17.79;50.05
11172;BME280;5642;50.830;12.082;2022-10-30T03:45:49;99679.72;;;17.52;49.95
11172;BME280;5642;50.830;12.082;2022-10-30T03:48:17;99724.16;;;17.78;50.08
11172;BME280;5642;50.830;12.082;2022-10-30T03:50:44;99728.63;;;17.78;49.99
11172;BME280;5642;50.830;12.082;2022-10-30T03:53:11;99702.88;;;17.64;50.08
11172;BME280;5642;50.830;12.082;2022-10-30T03:55:38;99724.53;;;17.72;50.25
11172;BME280;5642;50.830;12.082;2022-10-30T03:58:05;99714.84;;;17.71;50.17
11172;BME280;5642;50.830;12.082;2022-10-30T04:00:32;99721.88;;;17.72;50.17
11172;BME280;5642;50.830;12.082;2022-10-30T04:02:58;99690.91;;;17.57;50.12
11172;BME280;5642;50.830;12.082;2022-10-30T04:05:26;99708.88;;;17.68;50.13
11172;BME280;5642;50.830;12.082;2022-10-30T04:07:57;99710.69;;;17.67;50.07
11172;BME280;5642;50.830;12.082;2022-10-30T04:10:23;99677.56;;;17.43;50.15
11172;BME280;5642;50.830;12.082;2022-10-30T04:12:50;99674.31;;;17.38;50.14
11172;BME280;5642;50.830;12.082;2022-10-30T04:15:17;99712.00;;;17.58;50.20
11172;BME280;5642;50.830;12.082;2022-10-30T04:17:49;99716.38;;;17.59;50.19
11172;BME280;5642;50.830;12.082;2022-10-30T04:20:17;99693.38;;;17.44;50.34
11172;BME280;5642;50.830;12.082;2022-10-30T04:22:44;99713.81;;;17.58;50.20
11172;BME280;5642;50.830;12.082;2022-10-30T04:25:10;99720.72;;;17.60;50.51
11172;BME280;5642;50.830;12.082;2022-10-30T04:27:43;99723.38;;;17.60;50.17
11172;BME280;5642;50.830;12.082;2022-10-30T04:30:11;99698.41;;;17.49;50.47
11172;BME280;5642;50.830;12.082;2022-10-30T04:32:51;99713.69;;;17.61;50.34
11172;BME280;5642;50.830;12.082;2022-10-30T04:35:20;99711.16;;;17.58;50.39
11172;BME280;5642;50.830;12.082;2022-10-30T04:38:00;99691.16;;;17.52;50.37
11172;BME280;5642;50.830;12.082;2022-10-30T04:40:28;99697.13;;;17.56;50.44
11172;BME280;5642;50.830;12.082;2022-10-30T04:42:54;99689.72;;;17.47;50.55
11172;BME280;5642;50.830;12.082;2022-10-30T04:45:21;99707.66;;;17.57;50.41
11172;BME280;5642;50.830;12.082;2022-10-30T04:47:48;99685.28;;;17.47;50.51
11172;BME280;5642;50.830;12.082;2022-10-30T04:50:14;99700.47;;;17.59;50.53
11172;BME280;5642;50.830;12.082;2022-10-30T04:52:41;99682.28;;;17.53;50.39
11172;BME280;5642;50.830;12.082;2022-10-30T04:55:08;99691.53;;;17.62;50.48
11172;BME280;5642;50.830;12.082;2022-10-30T04:57:35;99690.75;;;17.60;50.56
11172;BME280;5642;50.830;12.082;2022-10-30T05:00:05;99701.19;;;17.63;50.40
11172;BME280;5642;50.830;12.082;2022-10-30T05:02:35;99702.88;;;17.64;50.47
11172;BME280;5642;50.830;12.082;2022-10-30T05:05:03;99680.81;;;17.48;50.51
11172;BME280;5642;50.830;12.082;2022-10-30T05:07:29;99690.81;;;17.58;50.37
11172;BME280;5642;50.830;12.082;2022-10-30T05:09:55;99675.63;;;17.46;50.41
11172;BME280;5642;50.830;12.082;2022-10-30T05:12:22;99633.59;;;17.25;50.48
11172;BME280;5642;50.830;12.082;2022-10-30T05:14:48;99676.28;;;17.50;50.57
11172;BME280;5642;50.830;12.082;2022-10-30T05:17:14;99692.75;;;17.55;50.59
11172;BME280;5642;50.830;12.082;2022-10-30T05:19:41;99647.50;;;17.28;50.44
11172;BME280;5642;50.830;12.082;2022-10-30T05:22:07;99700.81;;;17.53;50.49
11172;BME280;5642;50.830;12.082;2022-10-30T05:24:34;99702.69;;;17.51;50.56
11172;BME280;5642;50.830;12.082;2022-10-30T05:27:01;99690.47;;;17.49;50.55
11172;BME280;5642;50.830;12.082;2022-10-30T05:29:27;99675.34;;;17.35;50.68
11172;BME280;5642;50.830;12.082;2022-10-30T05:31:53;99691.50;;;17.46;50.66
11172;BME280;5642;50.830;12.082;2022-10-30T05:34:19;99701.25;;;17.46;50.74
11172;BME280;5642;50.830;12.082;2022-10-30T05:36:45;99699.59;;;17.43;50.86
11172;BME280;5642;50.830;12.082;2022-10-30T05:39:12;99701.47;;;17.41;50.90
11172;BME280;5642;50.830;12.082;2022-10-30T05:41:38;99705.84;;;17.42;50.90
11172;BME280;5642;50.830;12.082;2022-10-30T05:44:04;99711.13;;;17.42;50.96
11172;BME280;5642;50.830;12.082;2022-10-30T05:46:34;99668.06;;;17.23;51.03
11172;BME280;5642;50.830;12.082;2022-10-30T05:49:00;99713.44;;;17.48;50.87
11172;BME280;5642;50.830;12.082;2022-10-30T05:51:26;99694.31;;;17.43;50.94
11172;BME280;5642;50.830;12.082;2022-10-30T05:53:53;99713.22;;;17.53;50.70
11172;BME280;5642;50.830;12.082;2022-10-30T05:56:19;99716.72;;;17.53;50.92
11172;BME280;5642;50.830;12.082;2022-10-30T05:58:47;99711.31;;;17.55;50.88
11172;BME280;5642;50.830;12.082;2022-10-30T06:01:13;99701.31;;;17.44;51.05
11172;BME280;5642;50.830;12.082;2022-10-30T06:03:43;99701.31;;;17.44;50.89
11172;BME280;5642;50.830;12.082;2022-10-30T06:06:09;99692.66;;;17.41;50.92
11172;BME280;5642;50.830;12.082;2022-10-30T06:08:36;99712.94;;;17.57;50.90
11172;BME280;5642;50.830;12.082;2022-10-30T06:11:03;99696.81;;;17.46;50.82
11172;BME280;5642;50.830;12.082;2022-10-30T06:13:29;99699.59;;;17.43;51.03
11172;BME280;5642;50.830;12.082;2022-10-30T06:15:56;99660.91;;;17.25;50.93
11172;BME280;5642;50.830;12.082;2022-10-30T06:18:23;99713.69;;;17.61;51.04
11172;BME280;5642;50.830;12.082;2022-10-30T06:20:49;99721.63;;;17.61;50.97
11172;BME280;5642;50.830;12.082;2022-10-30T06:23:15;99718.97;;;17.61;51.01
11172;BME280;5642;50.830;12.082;2022-10-30T06:25:41;99715.59;;;17.57;50.96
11172;BME280;5642;50.830;12.082;2022-10-30T06:28:11;99717.84;;;17.65;50.93
11172;BME280;5642;50.830;12.082;2022-10-30T06:30:38;99725.38;;;17.73;50.98
11172;BME280;5642;50.830;12.082;2022-10-30T06:33:06;99712.56;;;17.65;51.08
11172;BME280;5642;50.830;12.082;2022-10-30T06:35:32;99719.81;;;17.77;51.01
11172;BME280;5642;50.830;12.082;2022-10-30T06:37:59;99731.63;;;17.87;50.99
11172;BME280;5642;50.830;12.082;2022-10-30T06:40:26;99723.81;;;17.84;51.01
11172;BME280;5642;50.830;12.082;2022-10-30T06:42:53;99709.13;;;17.79;51.06
11172;BME280;5642;50.830;12.082;2022-10-30T06:45:20;99738.78;;;18.01;51.07
11172;BME280;5642;50.830;12.082;2022-10-30T06:47:47;99736.72;;;18.06;51.05
11172;BME280;5642;50.830;12.082;2022-10-30T06:50:15;99708.09;;;17.97;51.08
11172;BME280;5642;50.830;12.082;2022-10-30T06:52:51;99736.28;;;18.14;51.00
11172;BME280;5642;50.830;12.082;2022-10-30T06:55:20;99723.38;;;18.08;51.15
11172;BME280;5642;50.830;12.082;2022-10-30T06:57:52;99742.09;;;18.20;51.12
11172;BME280;5642;50.830;12.082;2022-10-30T07:00:18;99741.16;;;18.21;51.18
11172;BME280;5642;50.830;12.082;2022-10-30T07:02:57;99718.41;;;18.17;51.26
11172;BME280;5642;50.830;12.082;2022-10-30T07:05:23;99739.78;;;18.30;51.24
11172;BME280;5642;50.830;12.082;2022-10-30T07:07:49;99736.69;;;18.37;51.17
11172;BME280;5642;50.830;12.082;2022-10-30T07:10:15;99743.34;;;18.45;51.07
11172;BME280;5642;50.830;12.082;2022-10-30T07:12:42;99714.59;;;18.37;51.27
11172;BME280;5642;50.830;12.082;2022-10-30T07:15:08;99734.94;;;18.52;51.14
11172;BME280;5642;50.830;12.082;2022-10-30T07:17:34;99742.75;;;18.69;51.13
11172;BME280;5642;50.830;12.082;2022-10-30T07:20:02;99721.66;;;18.68;51.30
11172;BME280;5642;50.830;12.082;2022-10-30T07:22:29;99725.63;;;18.75;51.15
11172;BME280;5642;50.830;12.082;2022-10-30T07:24:55;99754.41;;;18.97;51.13
11172;BME280;5642;50.830;12.082;2022-10-30T07:27:21;99734.19;;;18.94;51.22
11172;BME280;5642;50.830;12.082;2022-10-30T07:29:47;99721.31;;;19.02;51.25
11172;BME280;5642;50.830;12.082;2022-10-30T07:32:13;99662.44;;;18.82;51.01
11172;BME280;5642;50.830;12.082;2022-10-30T07:34:39;99727.75;;;19.27;51.29
11172;BME280;5642;50.830;12.082;2022-10-30T07:37:05;99750.72;;;19.56;51.31
11172;BME280;5642;50.830;12.082;2022-10-30T07:39:32;99725.09;;;19.55;51.37
11172;BME280;5642;50.830;12.082;2022-10-30T07:41:58;99750.59;;;19.86;51.40
11172;BME280;5642;50.830;12.082;2022-10-30T07:44:24;99744.78;;;19.93;51.55
11172;BME280;5642;50.830;12.082;2022-10-30T07:46:50;99752.97;;;20.17;51.60
11172;BME280;5642;50.830;12.082;2022-10-30T07:49:17;99754.44;;;20.36;51.53
11172;BME280;5642;50.830;12.082;2022-10-30T07:51:43;99714.84;;;20.31;51.74
11172;BME280;5642;50.830;12.082;2022-10-30T07:54:09;99762.84;;;20.69;51.68
11172;BME280;5642;50.830;12.082;2022-10-30T07:56:35;99748.16;;;20.76;51.50
11172;BME280;5642;50.830;12.082;2022-10-30T07:59:02;99757.03;;;21.02;51.37
11172;BME280;5642;50.830;12.082;2022-10-30T08:01:28;99745.72;;;21.11;51.59
11172;BME280;5642;50.830;12.082;2022-10-30T08:03:54;99726.13;;;21.12;51.43
11172;BME280;5642;50.830;12.082;2022-10-30T08:06:20;99766.44;;;21.45;51.43
11172;BME280;5642;50.830;12.082;2022-10-30T08:08:46;99763.75;;;21.58;51.57
11172;BME280;5642;50.830;12.082;2022-10-30T08:11:13;99743.03;;;21.62;51.24
11172;BME280;5642;50.830;12.082;2022-10-30T08:13:38;99757.94;;;21.77;51.07
11172;BME280;5642;50.830;12.082;2022-10-30T08:16:06;99765.81;;;21.91;51.17
11172;BME280;5642;50.830;12.082;2022-10-30T08:18:32;99761.31;;;21.92;51.09
11172;BME280;5642;50.830;12.082;2022-10-30T08:20:59;99764.09;;;22.03;50.91
11172;BME280;5642;50.830;12.082;2022-10-30T08:23:26;99760.59;;;22.02;50.71
11172;BME280;5642;50.830;12.082;2022-10-30T08:25:52;99771.41;;;22.12;50.73
11172;BME280;5642;50.830;12.082;2022-10-30T08:28:18;99769.59;;;22.12;50.60
11172;BME280;5642;50.830;12.082;2022-10-30T08:30:44;99757.56;;;22.07;50.70
11172;BME280;5642;50.830;12.082;2022-10-30T08:33:11;99763.91;;;22.17;50.66
11172;BME280;5642;50.830;12.082;2022-10-30T08:35:48;99762.09;;;22.17;50.56
11172;BME280;5642;50.830;12.082;2022-10-30T08:38:15;99770.81;;;22.32;50.66
11172;BME280;5642;50.830;12.082;2022-10-30T08:40:41;99764.44;;;22.46;50.85
11172;BME280;5642;50.830;12.082;2022-10-30T08:43:10;99764.72;;;22.78;50.71
11172;BME280;5642;50.830;12.082;2022-10-30T08:45:36;99744.13;;;22.91;51.13
11172;BME280;5642;50.830;12.082;2022-10-30T08:48:03;99768.25;;;23.35;50.65
11172;BME280;5642;50.830;12.082;2022-10-30T08:50:34;99763.19;;;23.66;50.87
11172;BME280;5642;50.830;12.082;2022-10-30T08:53:05;99760.44;;;23.99;50.58
11172;BME280;5642;50.830;12.082;2022-10-30T08:55:32;99751.28;;;24.24;50.71
11172;BME280;5642;50.830;12.082;2022-10-30T08:57:58;99754.34;;;24.51;50.63
11172;BME280;5642;50.830;12.082;2022-10-30T09:00:25;99758.03;;;24.71;50.60
11172;BME280;5642;50.830;12.082;2022-10-30T09:02:51;99740.19;;;24.81;50.17
11172;BME280;5642;50.830;12.082;2022-10-30T09:05:18;99755.59;;;25.00;50.24
11172;BME280;5642;50.830;12.082;2022-10-30T09:07:45;99747.16;;;25.05;49.71
11172;BME280;5642;50.830;12.082;2022-10-30T09:10:11;99747.03;;;25.06;49.44
11172;BME280;5642;50.830;12.082;2022-10-30T09:12:38;99723.25;;;24.92;49.71
11172;BME280;5642;50.830;12.082;2022-10-30T09:15:05;99743.63;;;25.04;49.71
11172;BME280;5642;50.830;12.082;2022-10-30T09:17:32;99748.97;;;25.04;49.41
11172;BME280;5642;50.830;12.082;2022-10-30T09:19:58;99746.91;;;25.08;49.32
11172;BME280;5642;50.830;12.082;2022-10-30T09:22:24;99749.31;;;25.11;49.41
11172;BME280;5642;50.830;12.082;2022-10-30T09:24:50;99754.00;;;25.18;49.65
11172;BME280;5642;50.830;12.082;2022-10-30T09:27:16;99756.44;;;25.21;49.14
11172;BME280;5642;50.830;12.082;2022-10-30T09:29:42;99749.81;;;25.25;49.47
11172;BME280;5642;50.830;12.082;2022-10-30T09:32:08;99746.47;;;25.33;49.27
11172;BME280;5642;50.830;12.082;2022-10-30T09:34:36;99707.69;;;25.16;49.03
11172;BME280;5642;50.830;12.082;2022-10-30T09:37:04;99747.41;;;25.53;49.21
11172;BME280;5642;50.830;12.082;2022-10-30T09:39:30;99741.78;;;25.56;49.29
11172;BME280;5642;50.830;12.082;2022-10-30T09:42:18;99744.66;;;25.73;49.09
11172;BME280;5642;50.830;12.082;2022-10-30T09:56:18;99754.28;;;25.76;48.43
11172;BME280;5642;50.830;12.082;2022-10-30T10:06:55;99752.69;;;26.23;48.54
11172;BME280;5642;50.830;12.082;2022-10-30T10:09:27;99732.06;;;27.01;49.00
11172;BME280;5642;50.830;12.082;2022-10-30T10:12:02;99745.94;;;28.17;49.00
11172;BME280;5642;50.830;12.082;2022-10-30T10:14:33;99732.41;;;29.31;49.29
11172;BME280;5642;50.830;12.082;2022-10-30T10:17:01;99736.09;;;30.56;49.10
11172;BME280;5642;50.830;12.082;2022-10-30T10:19:37;99743.66;;;31.89;48.57
11172;BME280;5642;50.830;12.082;2022-10-30T10:22:21;99675.69;;;32.75;47.54
11172;BME280;5642;50.830;12.082;2022-10-30T10:24:47;99733.44;;;34.16;47.97
11172;BME280;5642;50.830;12.082;2022-10-30T10:30:19;99731.66;;;36.25;46.30
11172;BME280;5642;50.830;12.082;2022-10-30T10:38:50;99719.09;;;38.51;44.18
11172;BME280;5642;50.830;12.082;2022-10-30T10:49:41;99706.69;;;40.14;43.10
11172;BME280;5642;50.830;12.082;2022-10-30T10:52:09;99697.47;;;40.39;42.50
11172;BME280;5642;50.830;12.082;2022-10-30T10:54:45;99692.63;;;40.52;41.93
11172;BME280;5642;50.830;12.082;2022-10-30T10:57:37;99694.78;;;40.62;42.03
11172;BME280;5642;50.830;12.082;2022-10-30T11:00:15;99684.50;;;40.57;41.81
11172;BME280;5642;50.830;12.082;2022-10-30T11:03:08;99687.25;;;40.57;41.23
11172;BME280;5642;50.830;12.082;2022-10-30T11:05:43;99686.28;;;40.40;41.89
11172;BME280;5642;50.830;12.082;2022-10-30T11:08:22;99686.66;;;40.14;41.19
11172;BME280;5642;50.830;12.082;2022-10-30T11:10:56;99648.94;;;39.61;41.04
11172;BME280;5642;50.830;12.082;2022-10-30T11:13:41;99677.47;;;39.35;40.62
11172;BME280;5642;50.830;12.082;2022-10-30T11:16:20;99673.28;;;38.90;40.47
11172;BME280;5642;50.830;12.082;2022-10-30T11:18:54;99675.81;;;38.35;40.42
11172;BME280;5642;50.830;12.082;2022-10-30T11:21:23;99678.63;;;37.84;40.33
11172;BME280;5642;50.830;12.082;2022-10-30T11:23:50;99660.53;;;37.25;40.25
11172;BME280;5642;50.830;12.082;2022-10-30T11:29:04;99664.25;;;36.05;39.39
11172;BME280;5642;50.830;12.082;2022-10-30T11:31:42;99669.22;;;35.41;39.43
11172;BME280;5642;50.830;12.082;2022-10-30T11:36:49;99651.34;;;34.06;39.50
11172;BME280;5642;50.830;12.082;2022-10-30T11:39:20;99683.09;;;33.69;39.62
11172;BME280;5642;50.830;12.082;2022-10-30T11:47:00;99668.91;;;32.03;39.57
11172;BME280;5642;50.830;12.082;2022-10-30T11:52:00;99673.19;;;31.19;39.64
11172;BME280;5642;50.830;12.082;2022-10-30T11:54:35;99664.78;;;30.82;39.40
11172;BME280;5642;50.830;12.082;2022-10-30T11:57:02;99628.09;;;30.22;39.39
11172;BME280;5642;50.830;12.082;2022-10-30T11:59:29;99637.47;;;29.86;39.60
11172;BME280;5642;50.830;12.082;2022-10-30T12:02:01;99675.97;;;29.80;39.38
11172;BME280;5642;50.830;12.082;2022-10-30T12:04:29;99675.16;;;29.45;39.51
11172;BME280;5642;50.830;12.082;2022-10-30T12:07:17;99674.16;;;29.20;39.80
11172;BME280;5642;50.830;12.082;2022-10-30T12:09:47;99666.09;;;28.95;39.41
11172;BME280;5642;50.830;12.082;2022-10-30T12:12:37;99661.03;;;28.74;39.83
11172;BME280;5642;50.830;12.082;2022-10-30T12:15:31;99658.13;;;28.41;39.55
11172;BME280;5642;50.830;12.082;2022-10-30T12:18:03;99666.75;;;28.27;39.78
11172;BME280;5642;50.830;12.082;2022-10-30T12:20:35;99631.00;;;27.90;39.72
11172;BME280;5642;50.830;12.082;2022-10-30T12:23:16;99650.84;;;27.89;39.75
11172;BME280;5642;50.830;12.082;2022-10-30T12:25:52;99645.28;;;27.73;40.01
11172;BME280;5642;50.830;12.082;2022-10-30T12:28:31;99657.81;;;27.64;39.84
11172;BME280;5642;50.830;12.082;2022-10-30T12:33:31;99661.88;;;27.41;39.73
11172;BME280;5642;50.830;12.082;2022-10-30T12:36:06;99656.00;;;27.27;39.78
11172;BME280;5642;50.830;12.082;2022-10-30T12:41:11;99652.38;;;27.09;39.90
11172;BME280;5642;50.830;12.082;2022-10-30T12:43:41;99630.53;;;26.85;40.06
11172;BME280;5642;50.830;12.082;2022-10-30T12:47:03;99651.47;;;26.91;40.09
11172;BME280;5642;50.830;12.082;2022-10-30T12:49:30;99652.59;;;26.79;40.22
11172;BME280;5642;50.830;12.082;2022-10-30T12:55:00;99651.50;;;26.62;40.23
11172;BME280;5642;50.830;12.082;2022-10-30T12:58:00;99647.69;;;26.55;40.11
11172;BME280;5642;50.830;12.082;2022-10-30T13:00:55;99641.34;;;26.46;40.12
11172;BME280;5642;50.830;12.082;2022-10-30T13:06:27;99607.56;;;26.15;40.20
11172;BME280;5642;50.830;12.082;2022-10-30T13:11:50;99577.63;;;25.91;40.21
11172;BME280;5642;50.830;12.082;2022-10-30T13:14:20;99634.44;;;26.25;40.34
11172;BME280;5642;50.830;12.082;2022-10-30T13:16:50;99579.59;;;25.89;40.38
11172;BME280;5642;50.830;12.082;2022-10-30T13:19:17;99617.16;;;26.08;40.41
11172;BME280;5642;50.830;12.082;2022-10-30T13:27:37;99626.38;;;26.05;40.42
11172;BME280;5642;50.830;12.082;2022-10-30T13:33:00;99626.78;;;26.01;40.51
11172;BME280;5642;50.830;12.082;2022-10-30T13:44:03;99619.00;;;25.88;40.32
11172;BME280;5642;50.830;12.082;2022-10-30T13:52:15;99620.41;;;25.83;40.69
11172;BME280;5642;50.830;12.082;2022-10-30T13:54:56;99624.66;;;25.85;40.61
11172;BME280;5642;50.830;12.082;2022-10-30T14:00:52;99625.38;;;25.78;40.43
11172;BME280;5642;50.830;12.082;2022-10-30T14:06:11;99628.19;;;25.76;40.58
11172;BME280;5642;50.830;12.082;2022-10-30T14:11:39;99633.25;;;25.69;40.77
11172;BME280;5642;50.830;12.082;2022-10-30T14:16:45;99629.84;;;25.67;40.50
11172;BME280;5642;50.830;12.082;2022-10-30T14:19:29;99629.56;;;25.61;40.72
11172;BME280;5642;50.830;12.082;2022-10-30T14:21:56;99634.94;;;25.61;40.52
11172;BME280;5642;50.830;12.082;2022-10-30T14:24:31;99634.09;;;25.60;40.63
11172;BME280;5642;50.830;12.082;2022-10-30T14:32:47;99597.03;;;25.35;40.34
11172;BME280;5642;50.830;12.082;2022-10-30T14:39:53;99629.47;;;25.32;40.36
11172;BME280;5642;50.830;12.082;2022-10-30T14:58:31;99626.63;;;24.73;40.62
11172;BME280;5642;50.830;12.082;2022-10-30T15:03:42;99624.28;;;24.58;41.09
11172;BME280;5642;50.830;12.082;2022-10-30T15:06:35;99635.09;;;24.47;40.77
11172;BME280;5642;50.830;12.082;2022-10-30T15:14:59;99620.06;;;24.03;40.96
11172;BME280;5642;50.830;12.082;2022-10-30T15:19:58;99631.56;;;23.83;41.14
11172;BME280;5642;50.830;12.082;2022-10-30T15:22:26;99567.50;;;23.38;41.20
11172;BME280;5642;50.830;12.082;2022-10-30T15:24:54;99577.25;;;23.28;40.95
11172;BME280;5642;50.830;12.082;2022-10-30T15:27:22;99619.00;;;23.40;41.29
11172;BME280;5642;50.830;12.082;2022-10-30T15:29:56;99574.97;;;23.01;41.25
11172;BME280;5642;50.830;12.082;2022-10-30T15:32:24;99589.66;;;22.96;41.37
11172;BME280;5642;50.830;12.082;2022-10-30T15:34:53;99570.22;;;22.72;41.59
11172;BME280;5642;50.830;12.082;2022-10-30T15:37:21;99578.94;;;22.62;41.72
11172;BME280;5642;50.830;12.082;2022-10-30T15:39:48;99614.28;;;22.66;41.72
11172;BME280;5642;50.830;12.082;2022-10-30T15:42:18;99597.38;;;22.43;41.73
11172;BME280;5642;50.830;12.082;2022-10-30T15:44:46;99654.78;;;22.60;41.72